Auburn, ME (04210)

1:31 PM EST on February 10, 2016 (GMT -0500)
KMEAUBUR5 | | Change Station
CLOSE
Current Station
Personal Weather Station
Location: Auburn, ME
Elevation: 364 ft
Nearby Weather Stations

Elev 364 ft 44.09 °N, 70.25 °W | Updated 1 minute ago

Clear
Clear
32.9 °F
Feels Like 33 °F
N
0.0
Wind Variable Wind from SE
Gusts 6.0 mph

Today
High -- | Low -- °F
--% Chance of Precip.
Yesterday
High -- | Low -- °F
Precip. -- in
Pressure 29.52 in
Visibility 10.0 miles
Clouds Few 2600 ft
Few 3400 ft
Windchill 33 °F
Dew Point 32 °F
Humidity 97%
Rainfall Not available.
Snow Depth Not available.
6:48 AM 5:02 PM
Waxing Crescent, 6% visible
METAR KLEW 101815Z 15003KT 10SM FEW026 FEW034 M01/M07 A2952 RMK AO1
Pressure 29.52 in
Visibility 10.0 miles
Clouds Few 2600 ft
Few 3400 ft
Windchill 33 °F
Dew Point 32 °F
Humidity 97%
Rainfall Not available.
Snow Depth Not available.
6:48 AM 5:02 PM
Waxing Crescent, 6% visible
METAR KLEW 101815Z 15003KT 10SM FEW026 FEW034 M01/M07 A2952 RMK AO1

10-Day Weather Forecast

Almanac

Astronomy

Feb. 10, 2016 Rise Set
Actual Time
Civil Twilight
Nautical Twilight
Astronomical Twilight
Moon
Length of Visible Light
Length of Day
Tomorrow will be .
, % of the Moon is Illuminated

Today's Extremes

State Highs State Lows

Community

WunderPhotos

Upload Photos

1,891,914 photos uploaded!

WunderBlog® & News

Nearby

Air Quality

  Air Quality AQ Index Pollutant
Not available.

Snow Depth

Station Depth Elevation

Earthquake Activity

City Distance Mag. Time & Date
Minimum magnitude displayed is 2.5.

Coastal Water Temperatures

Place Temperature

Stations

Nearby Weather Stations

Station Location Temp. Windchill Dew Point Humidity Wind Precip. Elev Updated Type
                   

Watches & Warnings

There are currently no watches in effect.